createdAt,value
2022-10-15T00:00:14.665Z,96749.75
2022-10-15T00:02:41.139Z,96747.94
2022-10-15T00:05:08.070Z,96749.59
2022-10-15T00:07:34.565Z,96738.78
2022-10-15T00:10:01.136Z,96732.38
2022-10-15T00:12:28.181Z,96739.63
2022-10-15T00:14:54.754Z,96736.84
2022-10-15T00:17:21.579Z,96736.59
2022-10-15T00:19:48.331Z,96741.03
2022-10-15T00:22:14.868Z,96736.97
2022-10-15T00:24:41.602Z,96737.22
2022-10-15T00:27:08.153Z,96734.03
2022-10-15T00:29:34.692Z,96729.69
2022-10-15T00:32:01.158Z,96722.00
2022-10-15T00:34:27.717Z,96724.91
2022-10-15T00:36:54.208Z,96717.56
2022-10-15T00:39:20.699Z,96714.06
2022-10-15T00:41:47.293Z,96715.19
2022-10-15T00:44:25.833Z,96707.59
2022-10-15T00:46:57.091Z,96705.47
2022-10-15T00:49:35.866Z,96697.28
2022-10-15T00:52:07.101Z,96707.00
2022-10-15T00:54:40.213Z,96707.00
2022-10-15T00:57:08.159Z,96699.91
2022-10-15T00:59:39.300Z,96693.66
2022-10-15T01:02:07.944Z,96697.03
2022-10-15T01:04:35.714Z,96697.28
2022-10-15T01:07:02.270Z,96699.66
2022-10-15T01:09:28.829Z,96700.75
2022-10-15T01:11:56.378Z,96693.53
2022-10-15T01:14:36.556Z,96690.75
2022-10-15T01:17:26.948Z,96686.88
2022-10-15T01:20:12.154Z,96688.31
2022-10-15T01:23:03.878Z,96685.69
2022-10-15T01:26:15.179Z,96685.78
2022-10-15T01:29:09.606Z,96677.34
2022-10-15T01:32:00.601Z,96677.19
2022-10-15T01:34:51.493Z,96670.78
2022-10-15T01:37:30.058Z,96672.19
2022-10-15T01:39:59.388Z,96670.66
2022-10-15T01:42:31.516Z,96662.00
2022-10-15T01:45:03.383Z,96665.09
2022-10-15T01:47:36.306Z,96665.22
2022-10-15T01:50:05.110Z,96659.25
2022-10-15T01:52:34.624Z,96654.78
2022-10-15T01:55:04.752Z,96658.16
2022-10-15T01:57:34.604Z,96646.03
2022-10-15T02:00:02.856Z,96629.91
2022-10-15T02:02:29.223Z,96641.56
2022-10-15T02:04:55.623Z,96638.78
2022-10-15T02:07:47.769Z,96629.09
2022-10-15T02:10:27.725Z,96632.78
2022-10-15T02:13:02.152Z,96632.19
2022-10-15T02:15:56.355Z,96630.59
2022-10-15T02:18:48.740Z,96638.22
2022-10-15T02:21:25.890Z,96628.38
2022-10-15T02:24:13.524Z,96629.47
2022-10-15T02:26:41.449Z,96627.19
2022-10-15T02:29:12.673Z,96635.25
2022-10-15T02:31:43.641Z,96627.34
2022-10-15T02:34:15.530Z,96623.91
2022-10-15T02:36:42.818Z,96615.66
2022-10-15T02:39:17.533Z,96611.63
2022-10-15T02:41:44.170Z,96607.88
2022-10-15T02:44:10.707Z,96607.88
2022-10-15T02:46:37.247Z,96607.34
2022-10-15T02:49:03.931Z,96607.59
2022-10-15T02:51:34.591Z,96610.53
2022-10-15T02:54:02.595Z,96607.06
2022-10-15T02:58:56.601Z,96602.28
2022-10-15T03:01:23.359Z,96600.53
2022-10-15T03:03:51.012Z,96607.09
2022-10-15T03:06:17.541Z,96600.22
2022-10-15T03:08:44.462Z,96600.47
2022-10-15T03:11:11.907Z,96603.81
2022-10-15T03:13:39.589Z,96591.84
2022-10-15T03:16:07.329Z,96594.97
2022-10-15T03:18:36.807Z,96598.53
2022-10-15T03:21:06.431Z,96591.84
2022-10-15T03:26:00.380Z,96592.00
2022-10-15T03:28:26.927Z,96590.44
2022-10-15T03:30:53.579Z,96583.06
2022-10-15T03:33:23.062Z,96586.13
2022-10-15T03:35:52.691Z,96588.06
2022-10-15T03:38:19.351Z,96592.63
2022-10-15T03:40:46.506Z,96589.25
2022-10-15T03:43:12.954Z,96593.84
2022-10-15T03:45:39.489Z,96598.28
2022-10-15T03:48:08.738Z,96588.91
2022-10-15T03:50:35.415Z,96590.94
2022-10-15T03:53:05.627Z,96587.34
2022-10-15T03:55:33.045Z,96585.94
2022-10-15T03:57:59.739Z,96593.13
2022-10-15T04:00:26.389Z,96598.41
2022-10-15T04:02:52.828Z,96590.09
2022-10-15T04:05:19.349Z,96593.00
2022-10-15T04:07:45.859Z,96591.34
2022-10-15T04:10:12.397Z,96588.69
2022-10-15T04:12:38.867Z,96592.38
2022-10-15T04:15:05.913Z,96592.31
2022-10-15T04:17:32.292Z,96595.78
2022-10-15T04:19:58.790Z,96596.63
2022-10-15T04:22:25.670Z,96592.16
2022-10-15T04:24:52.366Z,96592.03
2022-10-15T04:27:18.834Z,96590.63
2022-10-15T04:29:47.862Z,96593.00
2022-10-15T04:32:15.318Z,96587.72
2022-10-15T04:34:41.724Z,96586.25
2022-10-15T04:37:08.204Z,96584.53
2022-10-15T04:39:34.718Z,96591.44
2022-10-15T04:42:01.541Z,96585.47
2022-10-15T04:44:28.033Z,96587.03
2022-10-15T04:46:54.537Z,96585.19
2022-10-15T04:49:21.072Z,96588.28
2022-10-15T04:51:47.555Z,96584.31
2022-10-15T04:54:14.250Z,96583.47
2022-10-15T04:56:40.765Z,96580.38
2022-10-15T04:59:08.638Z,96575.56
2022-10-15T05:01:35.650Z,96582.88
2022-10-15T05:04:02.167Z,96588.16
2022-10-15T05:06:28.723Z,96577.72
2022-10-15T05:08:55.228Z,96571.38
2022-10-15T05:11:24.151Z,96566.97
2022-10-15T05:13:51.294Z,96565.13
2022-10-15T05:16:24.225Z,96563.19
2022-10-15T05:18:55.269Z,96559.00
2022-10-15T05:21:22.198Z,96559.00
2022-10-15T05:23:50.211Z,96571.25
2022-10-15T05:26:22.628Z,96569.44
2022-10-15T05:28:50.261Z,96568.59
2022-10-15T05:31:22.363Z,96567.22
2022-10-15T05:33:49.488Z,96571.13
2022-10-15T05:36:29.722Z,96573.19
2022-10-15T05:38:59.174Z,96578.88
2022-10-15T05:41:26.705Z,96572.16
2022-10-15T05:43:55.687Z,96575.59
2022-10-15T05:46:22.999Z,96579.53
2022-10-15T05:48:53.683Z,96571.84
2022-10-15T05:51:20.593Z,96577.44
2022-10-15T05:53:51.983Z,96582.63
2022-10-15T05:56:18.501Z,96576.09
2022-10-15T05:58:44.961Z,96586.09
2022-10-15T06:01:12.972Z,96585.28
2022-10-15T06:03:41.477Z,96584.56
2022-10-15T06:06:19.905Z,96585.41
2022-10-15T06:08:46.939Z,96588.34
2022-10-15T06:11:13.728Z,96587.66
2022-10-15T06:13:41.851Z,96587.25
2022-10-15T06:16:09.872Z,96588.38
2022-10-15T06:18:38.541Z,96577.13
2022-10-15T06:21:08.611Z,96585.59
2022-10-15T06:23:35.256Z,96593.56
2022-10-15T06:26:03.716Z,96585.63
2022-10-15T06:28:30.526Z,96585.22
2022-10-15T06:30:59.808Z,96589.97
2022-10-15T06:33:27.499Z,96590.25
2022-10-15T06:35:54.389Z,96589.03
2022-10-15T06:38:20.875Z,96595.31
2022-10-15T06:40:47.322Z,96595.88
2022-10-15T06:43:13.654Z,96601.72
2022-10-15T06:45:42.492Z,96604.38
2022-10-15T06:48:09.103Z,96595.88
2022-10-15T06:50:36.379Z,96606.75
2022-10-15T06:53:03.070Z,96617.09
2022-10-15T06:55:29.589Z,96619.16
2022-10-15T06:57:56.826Z,96623.66
2022-10-15T07:00:24.298Z,96626.28
2022-10-15T07:02:50.918Z,96626.53
2022-10-15T07:05:17.612Z,96629.03
2022-10-15T07:07:51.008Z,96630.84
2022-10-15T07:10:17.464Z,96638.53
2022-10-15T07:12:43.796Z,96642.28
2022-10-15T07:15:10.222Z,96650.06
2022-10-15T07:17:38.456Z,96641.00
2022-10-15T07:20:05.199Z,96646.44
2022-10-15T07:22:31.621Z,96642.97
2022-10-15T07:24:57.964Z,96649.66
2022-10-15T07:27:24.623Z,96659.56
2022-10-15T07:29:51.043Z,96662.63
2022-10-15T07:32:17.410Z,96657.88
2022-10-15T07:34:44.229Z,96667.50
2022-10-15T07:37:17.005Z,96672.22
2022-10-15T07:39:43.366Z,96673.19
2022-10-15T07:44:46.738Z,96670.94
2022-10-15T07:47:13.136Z,96675.13
2022-10-15T07:49:39.505Z,96676.22
2022-10-15T07:52:08.630Z,96684.59
2022-10-15T07:54:36.689Z,96687.50
2022-10-15T07:57:03.781Z,96685.88
2022-10-15T07:59:30.268Z,96692.97
2022-10-15T08:02:02.127Z,96685.81
2022-10-15T08:04:28.741Z,96695.59
2022-10-15T08:06:55.269Z,96688.88
2022-10-15T08:09:27.893Z,96694.19
2022-10-15T08:11:54.417Z,96689.97
2022-10-15T08:14:20.919Z,96691.47
2022-10-15T08:16:47.477Z,96706.00
2022-10-15T08:19:17.549Z,96706.00
2022-10-15T08:21:50.582Z,96708.88
2022-10-15T08:24:17.084Z,96720.13
2022-10-15T08:26:47.166Z,96712.66
2022-10-15T08:29:13.813Z,96719.91
2022-10-15T08:31:40.508Z,96724.06
2022-10-15T08:34:11.147Z,96726.59
2022-10-15T08:36:37.492Z,96734.59
2022-10-15T08:39:07.078Z,96734.00
2022-10-15T08:41:53.963Z,96741.81
2022-10-15T08:44:20.287Z,96743.63
2022-10-15T08:46:48.158Z,96751.03
2022-10-15T08:49:23.129Z,96751.69
2022-10-15T08:51:54.595Z,96750.03
2022-10-15T08:54:27.947Z,96757.78
2022-10-15T08:56:59.558Z,96743.22
2022-10-15T08:59:25.921Z,96760.28
2022-10-15T09:01:52.278Z,96756.63
2022-10-15T09:04:18.650Z,96769.94
2022-10-15T09:06:46.886Z,96765.44
2022-10-15T09:09:32.599Z,96767.94
2022-10-15T09:12:11.013Z,96766.91
2022-10-15T09:14:41.785Z,96774.47
2022-10-15T09:17:18.087Z,96780.63
2022-10-15T09:19:45.658Z,96786.56
2022-10-15T09:22:17.583Z,96792.81
2022-10-15T09:24:43.967Z,96785.53
2022-10-15T09:27:23.350Z,96793.72
2022-10-15T09:30:03.560Z,96799.22
2022-10-15T09:32:42.156Z,96800.63
2022-10-15T09:35:30.055Z,96797.13
2022-10-15T09:38:30.073Z,96811.25
2022-10-15T09:41:05.889Z,96806.34
2022-10-15T09:43:36.301Z,96808.03
2022-10-15T09:46:03.622Z,96816.69
2022-10-15T09:48:32.365Z,96822.00
2022-10-15T09:51:04.277Z,96823.69
2022-10-15T09:53:48.275Z,96821.88
2022-10-15T09:56:24.301Z,96823.81
2022-10-15T09:58:57.573Z,96826.75
2022-10-15T10:01:28.619Z,96830.44
2022-10-15T10:04:09.294Z,96841.63
2022-10-15T10:06:43.614Z,96833.19
2022-10-15T10:09:22.944Z,96843.03
2022-10-15T10:11:53.416Z,96839.63
2022-10-15T10:14:31.247Z,96856.56
2022-10-15T10:17:13.411Z,96855.56
2022-10-15T10:19:40.690Z,96840.44
2022-10-15T10:22:13.847Z,96844.00
2022-10-15T10:24:40.372Z,96819.31
2022-10-15T10:27:29.335Z,96831.16
2022-10-15T10:30:02.146Z,96834.13
2022-10-15T10:32:31.777Z,96841.41
2022-10-15T10:34:59.512Z,96839.97
2022-10-15T10:37:27.128Z,96832.13
2022-10-15T10:39:57.124Z,96834.56
2022-10-15T10:42:30.818Z,96822.91
2022-10-15T10:45:18.505Z,96813.84
2022-10-15T10:47:45.405Z,96812.66
2022-10-15T10:50:32.896Z,96816.50
2022-10-15T10:53:17.334Z,96816.72
2022-10-15T10:55:45.676Z,96814.69
2022-10-15T10:58:23.379Z,96822.28
2022-10-15T11:00:55.169Z,96829.06
2022-10-15T11:03:34.906Z,96825.69
2022-10-15T11:06:09.445Z,96821.78
2022-10-15T11:08:56.124Z,96829.09
2022-10-15T11:11:37.108Z,96827.34
2022-10-15T11:14:26.019Z,96816.94
2022-10-15T11:17:08.712Z,96814.00
2022-10-15T11:22:31.496Z,96811.13
2022-10-15T11:25:06.641Z,96805.50
2022-10-15T11:28:12.376Z,96815.91
2022-10-15T11:30:45.232Z,96813.03
2022-10-15T11:33:23.972Z,96818.28
2022-10-15T11:35:59.086Z,96818.28
2022-10-15T11:38:30.354Z,96821.31
2022-10-15T11:41:15.195Z,96820.59
2022-10-15T11:43:41.503Z,96822.53
2022-10-15T11:46:16.649Z,96816.09
2022-10-15T11:49:01.635Z,96814.72
2022-10-15T11:51:30.790Z,96806.75
2022-10-15T11:54:12.269Z,96807.63
2022-10-15T11:56:41.188Z,96816.03
2022-10-15T11:59:10.486Z,96808.50
2022-10-15T12:01:52.247Z,96803.25
2022-10-15T12:04:30.374Z,96806.00
2022-10-15T12:07:01.465Z,96809.19
2022-10-15T12:09:39.616Z,96797.16
2022-10-15T12:12:16.650Z,96804.25
2022-10-15T12:15:01.400Z,96800.97
2022-10-15T12:17:39.958Z,96792.19
2022-10-15T12:20:17.077Z,96797.84
2022-10-15T12:22:46.235Z,96792.00
2022-10-15T12:25:31.526Z,96793.78
2022-10-15T12:28:03.347Z,96786.38
2022-10-15T12:30:34.262Z,96791.88
2022-10-15T12:33:01.522Z,96795.16
2022-10-15T12:35:35.100Z,96793.22
2022-10-15T12:38:20.904Z,96794.06
2022-10-15T12:40:47.530Z,96801.75
2022-10-15T12:43:19.905Z,96787.84
2022-10-15T12:45:52.425Z,96786.50
2022-10-15T12:48:21.000Z,96786.03
2022-10-15T12:50:47.703Z,96789.94
2022-10-15T12:53:26.071Z,96791.47
2022-10-15T12:56:19.510Z,96790.25
2022-10-15T12:58:53.182Z,96790.66
2022-10-15T13:01:19.548Z,96796.06
2022-10-15T13:03:49.309Z,96790.63
2022-10-15T13:06:21.465Z,96799.38
2022-10-15T13:08:50.853Z,96798.31
2022-10-15T13:11:36.063Z,96790.09
2022-10-15T13:14:09.214Z,96788.84
2022-10-15T13:16:35.716Z,96790.91
2022-10-15T13:19:02.906Z,96795.31
2022-10-15T13:21:50.171Z,96794.41
2022-10-15T13:24:20.886Z,96786.38
2022-10-15T13:26:49.733Z,96789.25
2022-10-15T13:29:28.741Z,96795.56
2022-10-15T13:31:56.743Z,96794.16
2022-10-15T13:34:35.599Z,96799.69
2022-10-15T13:37:02.780Z,96788.50
2022-10-15T13:39:29.265Z,96784.81
2022-10-15T13:42:28.011Z,96787.41
2022-10-15T13:44:57.213Z,96783.34
2022-10-15T13:47:32.375Z,96782.63
2022-10-15T13:50:19.086Z,96782.06
2022-10-15T13:52:57.733Z,96790.72
2022-10-15T13:55:25.798Z,96794.50
2022-10-15T13:57:57.095Z,96786.53
2022-10-15T14:00:25.304Z,96790.94
2022-10-15T14:03:30.924Z,96786.06
2022-10-15T14:05:58.383Z,96796.88
2022-10-15T14:08:35.074Z,96793.56
2022-10-15T14:11:01.820Z,96789.22
2022-10-15T14:13:28.572Z,96790.41
2022-10-15T14:16:14.066Z,96796.53
2022-10-15T14:18:45.229Z,96793.13
2022-10-15T14:21:19.624Z,96804.06
2022-10-15T14:23:47.225Z,96800.50
2022-10-15T14:26:14.077Z,96809.09
2022-10-15T14:28:41.557Z,96811.38
2022-10-15T14:31:08.240Z,96817.97
2022-10-15T14:33:37.296Z,96810.47
2022-10-15T14:36:24.010Z,96816.78
2022-10-15T14:38:52.135Z,96812.75
2022-10-15T14:41:23.141Z,96815.13
2022-10-15T14:44:13.030Z,96813.47
2022-10-15T14:46:41.305Z,96808.66
2022-10-15T14:49:25.858Z,96810.81
2022-10-15T14:52:02.419Z,96812.88
2022-10-15T14:54:34.567Z,96816.44
2022-10-15T14:57:01.133Z,96823.78
2022-10-15T14:59:29.804Z,96820.81
2022-10-15T15:02:01.798Z,96814.31
2022-10-15T15:04:38.046Z,96817.00
2022-10-15T15:07:14.934Z,96816.66
2022-10-15T15:09:42.011Z,96813.00
2022-10-15T15:12:15.558Z,96810.50
2022-10-15T15:14:42.048Z,96810.97
2022-10-15T15:17:15.947Z,96810.00
2022-10-15T15:19:43.934Z,96807.97
2022-10-15T15:22:12.024Z,96806.63
2022-10-15T15:24:38.669Z,96810.00
2022-10-15T15:27:05.072Z,96805.13
2022-10-15T15:29:31.571Z,96808.16
2022-10-15T15:31:57.980Z,96811.75
2022-10-15T15:34:24.378Z,96808.00
2022-10-15T15:36:50.858Z,96809.47
2022-10-15T15:39:17.205Z,96806.56
2022-10-15T15:41:43.853Z,96809.00
2022-10-15T15:44:12.107Z,96815.06
2022-10-15T15:46:38.599Z,96814.63
2022-10-15T15:49:05.092Z,96816.25
2022-10-15T15:51:32.602Z,96817.91
2022-10-15T15:53:59.166Z,96824.44
2022-10-15T15:56:28.406Z,96822.16
2022-10-15T15:58:54.917Z,96816.69
2022-10-15T16:01:21.753Z,96827.34
2022-10-15T16:03:48.615Z,96827.78
2022-10-15T16:06:15.197Z,96831.75
2022-10-15T16:08:41.698Z,96825.06
2022-10-15T16:11:08.337Z,96840.69
2022-10-15T16:13:35.470Z,96838.47
2022-10-15T16:16:02.241Z,96847.88
2022-10-15T16:18:28.706Z,96840.06
2022-10-15T16:20:55.352Z,96843.31
2022-10-15T16:23:21.889Z,96852.03
2022-10-15T16:25:48.433Z,96850.75
2022-10-15T16:28:15.038Z,96861.88
2022-10-15T16:30:41.615Z,96862.66
2022-10-15T16:35:39.713Z,96869.97
2022-10-15T16:38:06.397Z,96871.94
2022-10-15T16:40:34.628Z,96875.06
2022-10-15T16:43:01.196Z,96875.22
2022-10-15T16:45:27.716Z,96880.09
2022-10-15T16:47:54.262Z,96885.56
2022-10-15T16:50:20.856Z,96889.91
2022-10-15T16:52:47.336Z,96884.19
2022-10-15T16:55:14.082Z,96891.44
2022-10-15T16:57:41.396Z,96892.69
2022-10-15T17:00:08.650Z,96886.66
2022-10-15T17:02:36.599Z,96887.22
2022-10-15T17:05:03.115Z,96900.50
2022-10-15T17:07:29.597Z,96901.31
2022-10-15T17:09:56.598Z,96895.56
2022-10-15T17:12:23.622Z,96902.94
2022-10-15T17:14:51.579Z,96897.91
2022-10-15T17:17:18.582Z,96906.25
2022-10-15T17:19:45.122Z,96916.41
2022-10-15T17:22:11.672Z,96918.19
2022-10-15T17:24:38.184Z,96920.53
2022-10-15T17:27:05.306Z,96919.53
2022-10-15T17:29:33.411Z,96925.66
2022-10-15T17:32:00.514Z,96928.16
2022-10-15T17:34:27.996Z,96921.47
2022-10-15T17:36:56.034Z,96924.34
2022-10-15T17:39:22.601Z,96922.53
2022-10-15T17:41:50.593Z,96924.94
2022-10-15T17:44:17.472Z,96925.25
2022-10-15T17:46:44.054Z,96929.56
2022-10-15T17:49:11.283Z,96926.78
2022-10-15T17:51:38.003Z,96928.19
2022-10-15T17:54:04.641Z,96929.88
2022-10-15T17:56:33.946Z,96939.09
2022-10-15T17:59:02.800Z,96945.38
2022-10-15T18:04:22.783Z,96953.88
2022-10-15T18:06:49.269Z,96954.88
2022-10-15T18:09:15.809Z,96950.25
2022-10-15T18:11:42.402Z,96954.81
2022-10-15T18:14:08.923Z,96951.78
2022-10-15T18:16:35.536Z,96953.88
2022-10-15T18:19:02.025Z,96957.25
2022-10-15T18:21:28.824Z,96959.91
2022-10-15T18:23:58.688Z,96959.47
2022-10-15T18:26:25.390Z,96954.16
2022-10-15T18:28:53.382Z,96964.69
2022-10-15T18:31:21.161Z,96966.91
2022-10-15T18:33:51.810Z,96959.09
2022-10-15T18:36:23.923Z,96968.28
2022-10-15T18:38:50.563Z,96973.97
2022-10-15T18:41:18.671Z,96966.72
2022-10-15T18:43:53.238Z,96976.28
2022-10-15T18:46:20.354Z,96964.97
2022-10-15T18:48:47.015Z,96970.00
2022-10-15T18:51:13.904Z,96976.13
2022-10-15T18:53:41.488Z,96982.16
2022-10-15T18:56:09.503Z,96978.41
2022-10-15T18:58:38.881Z,96985.13
2022-10-15T19:01:24.672Z,96986.38
2022-10-15T19:03:52.556Z,96993.50
2022-10-15T19:06:20.521Z,96999.94
2022-10-15T19:08:48.389Z,96991.19
2022-10-15T19:11:16.281Z,96982.94
2022-10-15T19:13:42.966Z,96988.34
2022-10-15T19:16:09.626Z,96992.34
2022-10-15T19:18:37.092Z,96997.28
2022-10-15T19:21:04.964Z,96996.84
2022-10-15T19:23:31.998Z,96994.28
2022-10-15T19:25:58.643Z,96988.91
2022-10-15T19:28:26.203Z,97003.84
2022-10-15T19:31:01.587Z,97002.00
2022-10-15T19:33:29.214Z,97003.88
2022-10-15T19:35:56.342Z,97017.88
2022-10-15T19:38:24.119Z,97006.25
2022-10-15T19:40:51.415Z,97010.97
2022-10-15T19:43:19.098Z,97010.41
2022-10-15T19:45:46.807Z,97008.19
2022-10-15T19:48:15.677Z,97013.81
2022-10-15T19:50:44.240Z,97024.66
2022-10-15T19:53:14.076Z,97020.81
2022-10-15T19:55:40.703Z,97022.41
2022-10-15T19:58:07.611Z,97022.06
2022-10-15T20:00:34.899Z,97023.56
2022-10-15T20:03:01.631Z,97027.56
2022-10-15T20:05:28.291Z,97029.72
2022-10-15T20:07:54.805Z,97031.16
2022-10-15T20:10:25.561Z,97031.41
2022-10-15T20:12:52.611Z,97033.31
2022-10-15T20:15:19.145Z,97040.03
2022-10-15T20:17:46.834Z,97031.38
2022-10-15T20:20:13.397Z,97028.13
2022-10-15T20:22:39.995Z,97038.22
2022-10-15T20:25:06.672Z,97042.03
2022-10-15T20:27:33.177Z,97048.75
2022-10-15T20:30:00.714Z,97058.16
2022-10-15T20:32:34.688Z,97058.72
2022-10-15T20:35:02.933Z,97060.53
2022-10-15T20:37:29.680Z,97054.38
2022-10-15T20:42:23.943Z,97060.13
2022-10-15T20:44:51.468Z,97068.53
2022-10-15T20:47:18.143Z,97072.75
2022-10-15T20:49:49.332Z,97079.47
2022-10-15T20:52:16.227Z,97072.84
2022-10-15T20:54:42.832Z,97078.63
2022-10-15T20:57:10.510Z,97088.56
2022-10-15T20:59:36.997Z,97089.88
2022-10-15T21:02:03.686Z,97087.56
2022-10-15T21:04:30.152Z,97098.38
2022-10-15T21:06:57.216Z,97094.06
2022-10-15T21:09:23.875Z,97105.63
2022-10-15T21:11:50.376Z,97096.59
2022-10-15T21:14:16.915Z,97089.00
2022-10-15T21:16:43.485Z,97093.66
2022-10-15T21:19:09.959Z,97092.44
2022-10-15T21:21:36.521Z,97090.38
2022-10-15T21:24:04.499Z,97094.94
2022-10-15T21:26:31.006Z,97093.59
2022-10-15T21:28:59.371Z,97088.28
2022-10-15T21:31:27.296Z,97090.56
2022-10-15T21:33:55.826Z,97077.41
2022-10-15T21:36:27.787Z,97079.50
2022-10-15T21:39:00.072Z,97083.72
2022-10-15T21:41:28.509Z,97089.38
2022-10-15T21:43:55.357Z,97093.72
2022-10-15T21:46:22.136Z,97086.03
2022-10-15T21:48:48.681Z,97088.34
2022-10-15T21:51:19.245Z,97089.13
2022-10-15T21:53:46.584Z,97090.56
2022-10-15T21:56:13.510Z,97103.34
2022-10-15T21:58:41.232Z,97094.69
2022-10-15T22:01:15.732Z,97090.63
2022-10-15T22:03:44.742Z,97096.06
2022-10-15T22:06:12.673Z,97100.34
2022-10-15T22:08:40.121Z,97110.59
2022-10-15T22:11:13.537Z,97114.00
2022-10-15T22:13:43.435Z,97109.91
2022-10-15T22:16:11.401Z,97111.59
2022-10-15T22:18:38.686Z,97111.34
2022-10-15T22:21:23.227Z,97106.78
2022-10-15T22:23:53.630Z,97119.19
2022-10-15T22:26:23.003Z,97111.38
2022-10-15T22:28:51.800Z,97113.56
2022-10-15T22:31:18.936Z,97114.03
2022-10-15T22:33:46.223Z,97119.94
2022-10-15T22:36:20.304Z,97113.56
2022-10-15T22:38:49.408Z,97116.31
2022-10-15T22:41:16.491Z,97116.91
2022-10-15T22:43:43.701Z,97118.53
2022-10-15T22:46:10.576Z,97121.56
2022-10-15T22:48:39.106Z,97125.25
2022-10-15T22:51:07.864Z,97136.28
2022-10-15T22:53:34.751Z,97128.09
2022-10-15T22:56:03.636Z,97134.56
2022-10-15T22:58:31.805Z,97131.22
2022-10-15T23:01:19.091Z,97124.75
2022-10-15T23:03:48.221Z,97130.84
2022-10-15T23:06:15.683Z,97130.84
2022-10-15T23:08:43.474Z,97133.22
2022-10-15T23:11:21.603Z,97143.28
2022-10-15T23:13:53.373Z,97143.41
2022-10-15T23:16:22.553Z,97156.09
2022-10-15T23:19:00.195Z,97149.88
2022-10-15T23:22:03.434Z,97153.72
2022-10-15T23:24:29.945Z,97152.53
2022-10-15T23:26:56.548Z,97154.72
2022-10-15T23:29:24.919Z,97149.44
2022-10-15T23:31:52.759Z,97154.22
2022-10-15T23:34:22.544Z,97152.06
2022-10-15T23:36:50.042Z,97151.56
2022-10-15T23:39:23.572Z,97148.44
2022-10-15T23:41:50.446Z,97139.44
2022-10-15T23:44:17.885Z,97130.66
2022-10-15T23:46:44.831Z,97138.97
2022-10-15T23:49:11.927Z,97154.66
2022-10-15T23:51:38.539Z,97147.56
2022-10-15T23:54:13.804Z,97151.19
2022-10-15T23:56:40.559Z,97154.22
2022-10-15T23:59:08.746Z,97150.16
